createdAt,value
2023-02-17T00:00:48.356Z,58.88
2023-02-17T00:03:36.838Z,58.44
2023-02-17T00:06:26.884Z,58.44
2023-02-17T00:09:15.603Z,58.40
2023-02-17T00:12:04.176Z,58.20
2023-02-17T00:14:54.487Z,57.70
2023-02-17T00:17:43.086Z,58.08
2023-02-17T00:20:31.787Z,57.89
2023-02-17T00:23:20.277Z,57.75
2023-02-17T00:26:09.455Z,58.12
2023-02-17T00:28:59.203Z,57.76
2023-02-17T00:31:49.163Z,57.30
2023-02-17T00:34:37.807Z,57.29
2023-02-17T00:37:26.382Z,57.52
2023-02-17T00:40:15.785Z,57.02
2023-02-17T00:43:04.241Z,57.70
2023-02-17T00:45:52.832Z,57.07
2023-02-17T00:48:42.864Z,57.07
2023-02-17T00:51:31.429Z,56.94
2023-02-17T00:54:20.382Z,57.17
2023-02-17T00:57:08.829Z,57.21
2023-02-17T00:59:57.274Z,57.03
2023-02-17T01:02:45.769Z,57.77
2023-02-17T01:05:36.063Z,57.57
2023-02-17T01:08:25.410Z,58.03
2023-02-17T01:11:18.467Z,57.82
2023-02-17T01:14:07.392Z,57.54
2023-02-17T01:16:55.883Z,57.72
2023-02-17T01:19:44.302Z,58.23
2023-02-17T01:22:34.768Z,58.57
2023-02-17T01:25:23.231Z,58.00
2023-02-17T01:28:15.741Z,57.97
2023-02-17T01:31:08.295Z,57.87
2023-02-17T01:33:57.989Z,57.99
2023-02-17T01:36:46.515Z,57.88
2023-02-17T01:39:36.367Z,58.16
2023-02-17T01:42:24.787Z,58.01
2023-02-17T01:45:34.091Z,58.33
2023-02-17T01:48:24.053Z,58.95
2023-02-17T01:51:17.956Z,58.90
2023-02-17T01:54:08.620Z,59.24
2023-02-17T01:57:00.151Z,59.74
2023-02-17T01:59:49.117Z,59.44
2023-02-17T02:02:37.838Z,59.27
2023-02-17T02:05:26.411Z,58.99
2023-02-17T02:08:15.214Z,59.22
2023-02-17T02:11:03.658Z,58.89
2023-02-17T02:13:53.549Z,58.83
2023-02-17T02:16:46.677Z,59.28
2023-02-17T02:19:58.578Z,59.56
2023-02-17T02:23:01.712Z,59.78
2023-02-17T02:26:16.393Z,60.39
2023-02-17T02:29:21.018Z,60.15
2023-02-17T02:32:26.534Z,60.60
2023-02-17T02:35:17.869Z,60.32
2023-02-17T02:38:10.760Z,60.98
2023-02-17T02:41:04.012Z,61.56
2023-02-17T02:43:55.204Z,62.23
2023-02-17T02:46:43.708Z,63.30
2023-02-17T02:49:35.068Z,63.33
2023-02-17T02:52:28.267Z,63.63
2023-02-17T02:55:20.989Z,63.18
2023-02-17T02:58:13.919Z,63.78
2023-02-17T03:01:06.326Z,63.87
2023-02-17T03:04:04.092Z,64.39
2023-02-17T03:06:56.928Z,64.15
2023-02-17T03:09:45.408Z,64.55
2023-02-17T03:12:34.367Z,65.04
2023-02-17T03:15:26.970Z,65.11
2023-02-17T03:18:15.605Z,65.25
2023-02-17T03:21:07.896Z,65.80
2023-02-17T03:23:57.767Z,65.71
2023-02-17T03:26:46.469Z,65.64
2023-02-17T03:29:35.147Z,66.27
2023-02-17T03:32:23.748Z,66.74
2023-02-17T03:35:12.297Z,67.27
2023-02-17T03:38:00.826Z,68.10
2023-02-17T03:40:50.640Z,69.04
2023-02-17T03:43:39.149Z,69.39
2023-02-17T03:46:27.542Z,69.79
2023-02-17T03:49:16.026Z,70.28
2023-02-17T03:52:04.815Z,70.69
2023-02-17T03:54:53.607Z,70.75
2023-02-17T03:57:43.396Z,70.78
2023-02-17T04:00:31.877Z,71.43
2023-02-17T04:03:20.354Z,72.30
2023-02-17T04:06:09.716Z,73.44
2023-02-17T04:08:58.202Z,74.34
2023-02-17T04:11:46.676Z,75.25
2023-02-17T04:14:36.818Z,75.56
2023-02-17T04:17:25.331Z,74.99
2023-02-17T04:20:14.097Z,74.77
2023-02-17T04:23:02.623Z,74.85
2023-02-17T04:25:51.108Z,74.03
2023-02-17T04:28:40.627Z,74.13
2023-02-17T04:31:30.573Z,73.02
2023-02-17T04:34:19.156Z,72.17
2023-02-17T04:37:07.791Z,72.39
2023-02-17T04:39:56.271Z,71.35
2023-02-17T04:42:44.714Z,71.04
2023-02-17T04:45:33.405Z,71.46
2023-02-17T04:48:23.562Z,70.94
2023-02-17T04:51:12.051Z,70.95
2023-02-17T04:54:00.531Z,70.78
2023-02-17T04:56:49.157Z,71.16
2023-02-17T04:59:37.862Z,70.86
2023-02-17T05:02:26.869Z,70.80
2023-02-17T05:05:18.750Z,70.84
2023-02-17T05:08:07.277Z,71.09
2023-02-17T05:10:55.760Z,70.65
2023-02-17T05:13:44.263Z,71.06
2023-02-17T05:16:32.732Z,71.41
2023-02-17T05:19:21.372Z,71.62
2023-02-17T05:22:11.296Z,72.19
2023-02-17T05:24:59.776Z,73.15
2023-02-17T05:27:48.239Z,73.85
2023-02-17T05:30:36.828Z,74.22
2023-02-17T05:33:25.329Z,74.65
2023-02-17T05:36:14.217Z,75.18
2023-02-17T05:39:04.102Z,75.46
2023-02-17T05:41:52.547Z,76.36
2023-02-17T05:44:41.027Z,77.13
2023-02-17T05:47:29.692Z,78.81
2023-02-17T05:50:18.309Z,79.70
2023-02-17T05:53:06.822Z,81.06
2023-02-17T05:55:56.640Z,82.20
2023-02-17T05:58:45.198Z,83.47
2023-02-17T06:01:34.429Z,85.15
2023-02-17T06:04:24.094Z,85.57
2023-02-17T06:07:13.632Z,85.44
2023-02-17T06:10:02.104Z,85.91
2023-02-17T06:12:52.064Z,86.08
2023-02-17T06:15:40.533Z,86.52
2023-02-17T06:18:29.256Z,86.41
2023-02-17T06:21:17.736Z,85.59
2023-02-17T06:24:06.855Z,85.64
2023-02-17T06:26:55.331Z,85.10
2023-02-17T06:29:45.631Z,84.96
2023-02-17T06:32:34.679Z,85.32
2023-02-17T06:35:23.158Z,85.36
2023-02-17T06:38:11.701Z,85.21
2023-02-17T06:41:00.185Z,85.23
2023-02-17T06:43:48.915Z,84.97
2023-02-17T06:46:38.658Z,84.59
2023-02-17T06:49:27.266Z,84.38
2023-02-17T06:52:15.816Z,83.87
2023-02-17T06:55:04.833Z,83.81
2023-02-17T06:57:53.339Z,84.49
2023-02-17T07:00:41.769Z,84.62
2023-02-17T07:03:32.554Z,85.03
2023-02-17T07:06:21.153Z,85.89
2023-02-17T07:09:11.495Z,85.50
2023-02-17T07:12:00.113Z,85.59
2023-02-17T07:14:48.942Z,83.99
2023-02-17T07:17:37.500Z,82.81
2023-02-17T07:20:27.358Z,81.16
2023-02-17T07:23:15.880Z,80.34
2023-02-17T07:26:05.508Z,78.45
2023-02-17T07:28:54.186Z,77.81
2023-02-17T07:31:42.789Z,76.51
2023-02-17T07:34:31.306Z,75.11
2023-02-17T07:37:21.917Z,74.57
2023-02-17T07:40:11.056Z,75.39
2023-02-17T07:42:59.614Z,74.60
2023-02-17T07:45:48.185Z,73.81
2023-02-17T07:48:36.839Z,74.67
2023-02-17T07:51:25.848Z,74.81
2023-02-17T07:54:16.031Z,75.00
2023-02-17T07:57:04.693Z,75.38
2023-02-17T07:59:53.186Z,76.42
2023-02-17T08:02:41.736Z,76.31
2023-02-17T08:05:30.248Z,76.55
2023-02-17T08:08:36.172Z,76.51
2023-02-17T08:11:40.288Z,77.14
2023-02-17T08:14:31.540Z,78.25
2023-02-17T08:17:20.031Z,79.13
2023-02-17T08:20:09.531Z,79.32
2023-02-17T08:22:58.148Z,80.15
2023-02-17T08:25:46.679Z,79.97
2023-02-17T08:28:36.498Z,81.09
2023-02-17T08:31:28.580Z,82.68
2023-02-17T08:34:17.419Z,83.88
2023-02-17T08:37:07.122Z,84.46
2023-02-17T08:39:55.625Z,85.91
2023-02-17T08:42:44.264Z,87.03
2023-02-17T08:45:34.293Z,86.55
2023-02-17T08:48:22.836Z,86.21
2023-02-17T08:51:13.591Z,87.04
2023-02-17T08:54:03.473Z,88.57
2023-02-17T08:56:52.069Z,89.48
2023-02-17T08:59:40.596Z,89.47
2023-02-17T09:02:30.480Z,90.90
2023-02-17T09:05:19.105Z,90.41
2023-02-17T09:08:07.646Z,90.74
2023-02-17T09:10:56.190Z,90.98
2023-02-17T09:13:45.099Z,91.08
2023-02-17T09:16:33.853Z,90.62
2023-02-17T09:19:24.473Z,90.79
2023-02-17T09:22:29.761Z,90.99
2023-02-17T09:25:20.079Z,91.34
2023-02-17T09:28:08.676Z,91.07
2023-02-17T09:30:57.293Z,91.58
2023-02-17T09:33:47.737Z,90.66
2023-02-17T09:36:40.499Z,90.48
2023-02-17T09:39:28.930Z,89.94
2023-02-17T09:42:20.441Z,89.91
2023-02-17T09:45:13.065Z,90.10
2023-02-17T09:48:04.721Z,90.15
2023-02-17T09:50:58.132Z,89.69
2023-02-17T09:53:53.694Z,89.15
2023-02-17T09:56:46.103Z,88.11
2023-02-17T09:59:38.460Z,87.52
2023-02-17T10:02:34.720Z,86.74
2023-02-17T10:05:26.075Z,85.56
2023-02-17T10:08:19.229Z,84.69
2023-02-17T10:11:14.842Z,83.43
2023-02-17T10:14:07.307Z,81.88
2023-02-17T10:16:58.883Z,81.79
2023-02-17T10:19:52.596Z,82.15
2023-02-17T10:22:45.016Z,82.09
2023-02-17T10:25:49.968Z,81.49
2023-02-17T10:28:51.407Z,81.65
2023-02-17T10:31:45.752Z,81.24
2023-02-17T10:34:37.066Z,81.01
2023-02-17T10:37:31.008Z,81.24
2023-02-17T10:40:21.685Z,80.53
2023-02-17T10:43:11.512Z,80.90
2023-02-17T10:46:04.299Z,79.85
2023-02-17T10:48:54.858Z,80.18
2023-02-17T10:51:43.526Z,80.30
2023-02-17T10:54:38.993Z,80.16
2023-02-17T10:57:32.217Z,80.16
2023-02-17T11:00:21.489Z,80.50
2023-02-17T11:03:21.466Z,79.01
2023-02-17T11:06:18.155Z,78.94
2023-02-17T11:09:10.940Z,78.69
2023-02-17T11:12:01.130Z,78.79
2023-02-17T11:14:51.760Z,77.90
2023-02-17T11:17:40.955Z,78.51
2023-02-17T11:20:34.620Z,79.24
2023-02-17T11:23:24.811Z,79.55
2023-02-17T11:26:20.160Z,79.30
2023-02-17T11:29:10.227Z,79.32
2023-02-17T11:32:02.165Z,78.65
2023-02-17T11:34:58.673Z,78.54
2023-02-17T11:37:48.576Z,77.51
2023-02-17T11:40:37.208Z,78.13
2023-02-17T11:43:25.841Z,79.19
2023-02-17T11:46:24.607Z,79.19
2023-02-17T11:49:36.449Z,80.31
2023-02-17T11:52:35.878Z,80.73
2023-02-17T11:55:35.909Z,81.26
2023-02-17T11:58:32.990Z,81.74
2023-02-17T12:01:35.577Z,82.24
2023-02-17T12:04:26.948Z,82.72
2023-02-17T12:07:47.934Z,83.57
2023-02-17T12:10:46.977Z,83.84
2023-02-17T12:13:42.776Z,83.39
2023-02-17T12:16:41.226Z,83.76
2023-02-17T12:19:41.436Z,83.75
2023-02-17T12:22:34.154Z,83.24
2023-02-17T12:25:26.764Z,84.24
2023-02-17T12:28:38.659Z,83.92
2023-02-17T12:31:43.105Z,83.88
2023-02-17T12:34:34.586Z,83.99
2023-02-17T12:37:25.229Z,83.03
2023-02-17T12:40:32.930Z,82.36
2023-02-17T12:43:27.168Z,81.58
2023-02-17T12:46:17.857Z,81.73
2023-02-17T12:49:12.071Z,81.90
2023-02-17T12:52:05.356Z,81.68
2023-02-17T12:54:57.196Z,81.87
2023-02-17T12:57:48.707Z,81.63
2023-02-17T13:00:41.941Z,82.02
2023-02-17T13:03:31.072Z,81.72
2023-02-17T13:06:25.009Z,81.98
2023-02-17T13:09:19.545Z,80.93
2023-02-17T13:12:12.698Z,80.12
2023-02-17T13:15:03.243Z,79.97
2023-02-17T13:18:01.300Z,79.89
2023-02-17T13:20:58.888Z,79.36
2023-02-17T13:23:59.770Z,79.75
2023-02-17T13:26:48.301Z,79.46
2023-02-17T13:29:37.250Z,79.74
2023-02-17T13:32:29.272Z,80.22
2023-02-17T13:35:32.527Z,80.04
2023-02-17T13:38:28.349Z,80.10
2023-02-17T13:41:16.875Z,80.70
2023-02-17T13:44:26.948Z,81.15
2023-02-17T13:47:18.464Z,81.44
2023-02-17T13:50:08.674Z,81.06
2023-02-17T13:52:58.609Z,81.52
2023-02-17T13:55:47.116Z,82.01
2023-02-17T13:58:37.208Z,81.77
2023-02-17T14:01:28.813Z,82.39
2023-02-17T14:04:21.078Z,83.58
2023-02-17T14:07:11.862Z,84.72
2023-02-17T14:10:01.722Z,85.72
2023-02-17T14:12:50.610Z,86.56
2023-02-17T14:15:39.966Z,87.14
2023-02-17T14:18:34.991Z,87.51
2023-02-17T14:21:26.554Z,87.25
2023-02-17T14:24:25.809Z,87.60
2023-02-17T14:27:15.712Z,86.54
2023-02-17T14:30:05.721Z,86.86
2023-02-17T14:33:02.615Z,86.14
2023-02-17T14:35:53.246Z,85.97
2023-02-17T14:38:42.518Z,85.20
2023-02-17T14:41:31.103Z,83.99
2023-02-17T14:44:20.948Z,82.68
2023-02-17T14:47:09.489Z,82.40
2023-02-17T14:49:57.933Z,81.69
2023-02-17T14:52:48.280Z,81.67
2023-02-17T14:55:39.388Z,81.33
2023-02-17T14:58:28.303Z,81.72
2023-02-17T15:01:19.978Z,81.81
2023-02-17T15:04:08.556Z,81.91
2023-02-17T15:06:57.019Z,81.92
2023-02-17T15:09:46.337Z,81.87
2023-02-17T15:12:34.841Z,82.00
2023-02-17T15:15:23.942Z,82.48
2023-02-17T15:18:13.916Z,82.46
2023-02-17T15:21:02.661Z,83.22
2023-02-17T15:23:51.138Z,83.35
2023-02-17T15:26:39.589Z,83.22
2023-02-17T15:29:28.463Z,82.85
2023-02-17T15:32:18.865Z,82.97
2023-02-17T15:35:17.613Z,82.73
2023-02-17T15:38:06.137Z,83.25
2023-02-17T15:40:56.736Z,83.62
2023-02-17T15:43:46.857Z,83.87
2023-02-17T15:46:36.582Z,84.43
2023-02-17T15:49:25.067Z,84.87
2023-02-17T15:52:15.779Z,85.00
2023-02-17T15:55:04.738Z,85.47
2023-02-17T15:57:55.942Z,85.93
2023-02-17T16:00:46.447Z,85.43
2023-02-17T16:03:34.998Z,85.60
2023-02-17T16:06:23.742Z,85.77
2023-02-17T16:09:13.593Z,85.36
2023-02-17T16:12:02.765Z,85.52
2023-02-17T16:14:51.294Z,85.20
2023-02-17T16:17:39.853Z,85.40
2023-02-17T16:20:30.206Z,85.62
2023-02-17T16:23:18.879Z,85.73
2023-02-17T16:26:15.672Z,86.03
2023-02-17T16:29:10.652Z,86.19
2023-02-17T16:31:59.278Z,86.26
2023-02-17T16:34:48.522Z,86.88
2023-02-17T16:37:37.047Z,87.40
2023-02-17T16:40:27.594Z,87.42
2023-02-17T16:43:19.475Z,87.88
2023-02-17T16:46:08.266Z,88.06
2023-02-17T16:48:57.446Z,88.70
2023-02-17T16:51:46.009Z,89.66
2023-02-17T16:54:35.813Z,89.83
2023-02-17T16:57:24.853Z,90.34
2023-02-17T17:00:17.462Z,91.27
2023-02-17T17:03:05.892Z,91.48
2023-02-17T17:05:54.438Z,91.75
2023-02-17T17:08:42.907Z,92.26
2023-02-17T17:11:32.148Z,92.42
2023-02-17T17:14:21.814Z,92.67
2023-02-17T17:17:12.441Z,93.38
2023-02-17T17:20:00.898Z,93.46
2023-02-17T17:22:50.118Z,92.65
2023-02-17T17:25:40.640Z,92.45
2023-02-17T17:28:29.135Z,92.23
2023-02-17T17:31:19.643Z,92.30
2023-02-17T17:34:09.603Z,92.01
2023-02-17T17:36:59.593Z,92.45
2023-02-17T17:39:48.082Z,92.68
2023-02-17T17:42:37.667Z,93.24
2023-02-17T17:45:26.875Z,93.47
2023-02-17T17:48:16.443Z,93.14
2023-02-17T17:51:06.608Z,93.45
2023-02-17T17:53:55.365Z,93.46
2023-02-17T17:56:44.308Z,93.20
2023-02-17T17:59:32.874Z,93.67
2023-02-17T18:02:21.367Z,93.45
2023-02-17T18:05:10.310Z,93.41
2023-02-17T18:08:00.285Z,93.67
2023-02-17T18:10:48.811Z,93.21
2023-02-17T18:13:38.036Z,93.70
2023-02-17T18:16:28.046Z,94.33
2023-02-17T18:19:18.791Z,94.67
2023-02-17T18:22:07.397Z,94.88
2023-02-17T18:24:57.190Z,95.59
2023-02-17T18:27:47.214Z,95.77
2023-02-17T18:30:35.733Z,96.07
2023-02-17T18:33:24.425Z,96.08
2023-02-17T18:36:15.841Z,96.05
2023-02-17T18:39:04.494Z,95.92
2023-02-17T18:41:54.732Z,96.27
2023-02-17T18:44:43.266Z,95.89
2023-02-17T18:47:31.939Z,96.00
2023-02-17T18:50:20.566Z,95.64
2023-02-17T18:53:09.016Z,96.10
2023-02-17T18:55:57.488Z,95.55
2023-02-17T18:58:47.526Z,95.37
2023-02-17T19:01:39.081Z,95.14
2023-02-17T19:04:27.643Z,95.44
2023-02-17T19:07:16.087Z,94.41
2023-02-17T19:10:05.814Z,95.71
2023-02-17T19:12:54.381Z,95.46
2023-02-17T19:15:44.332Z,95.42
2023-02-17T19:18:32.835Z,96.26
2023-02-17T19:21:22.128Z,98.12
2023-02-17T19:24:10.725Z,99.24
2023-02-17T19:26:59.212Z,99.64
2023-02-17T19:29:47.882Z,99.35
2023-02-17T19:32:37.945Z,100.00
2023-02-17T19:35:26.455Z,100.00
2023-02-17T19:38:15.030Z,100.00
2023-02-17T19:41:04.253Z,100.00
2023-02-17T19:43:52.882Z,100.00
2023-02-17T19:46:41.649Z,100.00
2023-02-17T19:49:31.539Z,100.00
2023-02-17T19:52:21.057Z,100.00
2023-02-17T19:55:10.033Z,100.00
2023-02-17T19:57:58.472Z,100.00
2023-02-17T20:00:47.087Z,100.00
2023-02-17T20:03:35.926Z,100.00
2023-02-17T20:06:27.528Z,100.00
2023-02-17T20:09:18.055Z,100.00
2023-02-17T20:12:07.173Z,100.00
2023-02-17T20:14:55.862Z,100.00
2023-02-17T20:17:44.556Z,100.00
2023-02-17T20:20:33.051Z,100.00
2023-02-17T20:23:23.185Z,100.00
2023-02-17T20:26:13.292Z,100.00
2023-02-17T20:29:02.991Z,100.00
2023-02-17T20:31:51.723Z,100.00
2023-02-17T20:34:40.574Z,100.00
2023-02-17T20:37:29.082Z,100.00
2023-02-17T20:40:18.959Z,100.00
2023-02-17T20:43:07.412Z,100.00
2023-02-17T20:45:56.123Z,100.00
2023-02-17T20:48:44.592Z,100.00
2023-02-17T20:51:33.060Z,100.00
2023-02-17T20:54:21.568Z,100.00
2023-02-17T20:57:15.084Z,100.00
2023-02-17T21:00:04.836Z,100.00
2023-02-17T21:02:53.452Z,100.00
2023-02-17T21:05:42.098Z,100.00
2023-02-17T21:08:30.941Z,100.00
2023-02-17T21:11:19.667Z,100.00
2023-02-17T21:14:10.105Z,100.00
2023-02-17T21:16:58.619Z,100.00
2023-02-17T21:19:47.275Z,100.00
2023-02-17T21:22:37.081Z,100.00
2023-02-17T21:25:25.569Z,100.00
2023-02-17T21:28:16.619Z,100.00
2023-02-17T21:31:07.523Z,100.00
2023-02-17T21:33:56.197Z,100.00
2023-02-17T21:36:44.628Z,100.00
2023-02-17T21:39:33.114Z,100.00
2023-02-17T21:42:43.127Z,100.00
2023-02-17T21:45:37.510Z,99.78
2023-02-17T21:48:27.513Z,99.33
2023-02-17T21:51:16.132Z,98.34
2023-02-17T21:54:05.240Z,97.04
2023-02-17T21:56:53.738Z,96.57
2023-02-17T21:59:44.035Z,96.59
2023-02-17T22:02:32.531Z,96.13
2023-02-17T22:05:22.355Z,96.04
2023-02-17T22:08:10.829Z,95.62
2023-02-17T22:10:59.406Z,95.91
2023-02-17T22:13:47.872Z,96.26
2023-02-17T22:16:37.040Z,96.12
2023-02-17T22:19:26.556Z,95.70
2023-02-17T22:22:16.440Z,95.74
2023-02-17T22:25:05.191Z,95.47
2023-02-17T22:27:53.735Z,94.52
2023-02-17T22:30:42.172Z,94.31
2023-02-17T22:33:30.789Z,94.62
2023-02-17T22:36:21.044Z,94.19
2023-02-17T22:39:10.909Z,93.88
2023-02-17T22:41:59.385Z,93.91
2023-02-17T22:44:47.936Z,93.68
2023-02-17T22:47:36.435Z,93.56
2023-02-17T22:50:24.879Z,93.39
2023-02-17T22:53:13.449Z,93.44
2023-02-17T22:56:04.151Z,93.29
2023-02-17T22:58:56.346Z,92.83
2023-02-17T23:01:46.170Z,92.77
2023-02-17T23:04:34.734Z,92.85
2023-02-17T23:07:23.530Z,92.65
2023-02-17T23:10:12.275Z,93.03
2023-02-17T23:13:02.106Z,92.83
2023-02-17T23:15:50.657Z,93.06
2023-02-17T23:18:39.139Z,93.01
2023-02-17T23:21:27.644Z,92.43
2023-02-17T23:24:16.963Z,92.03
2023-02-17T23:27:05.802Z,92.17
2023-02-17T23:29:55.866Z,91.65
2023-02-17T23:32:44.477Z,91.46
2023-02-17T23:35:32.938Z,91.33
2023-02-17T23:38:21.965Z,91.95
2023-02-17T23:41:11.651Z,91.15
2023-02-17T23:44:00.149Z,91.12
2023-02-17T23:46:49.976Z,90.88
2023-02-17T23:49:38.424Z,90.34
2023-02-17T23:52:27.121Z,90.76
2023-02-17T23:55:15.629Z,90.52
2023-02-17T23:58:04.168Z,90.08
